Time;durP1;ratioP1;P1;durP2;ratioP2;P2;SDS_P1;SDS_P2;PMS_P1;PMS_P2;Temp;Humidity;BMP_temperature;BMP_pressure;BME280_temperature;BME280_humidity;BME280_pressure;Samples;Min_cycle;Max_cycle;Signal;HPM_P1;HPM_P2
2021/01/20 00:01:42;;;;;;;5.40;3.93;;;11.30;40.10;;;;;;4976918;28;20756;-84
2021/01/20 00:04:09;;;;;;;7.10;4.13;;;11.20;38.10;;;;;;4977314;28;20502;-84
2021/01/20 00:06:35;;;;;;;6.83;4.33;;;10.80;39.50;;;;;;4977231;28;20820;-84
2021/01/20 00:09:02;;;;;;;6.43;5.03;;;10.80;39.90;;;;;;4976669;28;20448;-84
2021/01/20 00:11:29;;;;;;;6.60;4.70;;;10.80;41.30;;;;;;4976713;28;20997;-84
2021/01/20 00:13:56;;;;;;;6.73;3.87;;;10.70;40.50;;;;;;4976717;28;20534;-84
2021/01/20 00:16:22;;;;;;;5.10;3.93;;;11.00;41.10;;;;;;4976656;28;20462;-85
2021/01/20 00:18:49;;;;;;;6.10;4.10;;;11.00;40.30;;;;;;4976920;28;20448;-85
2021/01/20 00:21:15;;;;;;;7.03;3.97;;;11.10;41.30;;;;;;4976696;28;20885;-84
2021/01/20 00:23:42;;;;;;;6.97;3.90;;;11.10;40.60;;;;;;4976745;28;20480;-84
2021/01/20 00:26:08;;;;;;;6.30;3.93;;;11.10;40.80;;;;;;4976740;28;20436;-85
2021/01/20 00:28:36;;;;;;;11.00;4.10;;;11.20;40.80;;;;;;4977053;28;20452;-84
2021/01/20 00:31:02;;;;;;;6.03;4.30;;;11.20;40.20;;;;;;4976764;28;20474;-84
2021/01/20 00:33:29;;;;;;;4.77;3.87;;;11.40;40.80;;;;;;4976387;28;20476;-84
2021/01/20 00:35:55;;;;;;;8.73;4.33;;;11.40;40.70;;;;;;4976671;28;20806;-84
2021/01/20 00:38:22;;;;;;;6.00;3.83;;;11.50;40.80;;;;;;4976512;28;20839;-84
2021/01/20 00:40:48;;;;;;;5.03;3.57;;;11.80;40.80;;;;;;4976225;28;20509;-84
2021/01/20 00:43:15;;;;;;;6.10;3.80;;;11.70;40.80;;;;;;4976008;28;20452;-84
2021/01/20 00:45:42;;;;;;;11.50;5.00;;;11.50;40.40;;;;;;4976067;28;20456;-84
2021/01/20 01:00:56;;;;;;;4.93;3.80;;;11.40;41.30;;;;;;4935713;29;20454;-84
2021/01/20 01:03:22;;;;;;;5.00;4.13;;;11.30;41.00;;;;;;4935202;29;20485;-84
2021/01/20 01:05:48;;;;;;;11.63;3.80;;;11.50;41.20;;;;;;4935654;29;20434;-84
2021/01/20 01:08:15;;;;;;;5.73;4.27;;;11.20;40.30;;;;;;4935547;29;20435;-84
2021/01/20 01:10:41;;;;;;;12.97;4.50;;;11.30;40.50;;;;;;4935256;29;20465;-84
2021/01/20 01:13:08;;;;;;;6.73;3.67;;;11.30;40.50;;;;;;4954793;29;20478;-84
2021/01/20 01:15:34;;;;;;;5.67;4.00;;;11.40;41.00;;;;;;4984610;28;20440;-84
2021/01/20 01:18:02;;;;;;;6.03;4.10;;;11.60;41.10;;;;;;5000099;28;20447;-85
2021/01/20 01:20:28;;;;;;;4.50;3.30;;;11.80;40.60;;;;;;4999104;28;20464;-85
2021/01/20 01:22:57;;;;;;;6.00;3.13;;;11.50;38.50;;;;;;5000016;28;20436;-85
2021/01/20 01:25:24;;;;;;;5.10;3.50;;;11.50;38.50;;;;;;5000122;28;20435;-85
2021/01/20 01:27:50;;;;;;;3.83;3.13;;;11.30;36.60;;;;;;5000011;28;20434;-84
2021/01/20 01:30:18;;;;;;;5.90;3.80;;;10.70;36.00;;;;;;4999875;28;20456;-85
2021/01/20 01:32:44;;;;;;;4.20;3.40;;;10.70;40.60;;;;;;4999624;28;20432;-83
2021/01/20 01:35:12;;;;;;;4.00;3.47;;;10.70;36.60;;;;;;4999982;28;20424;-85
2021/01/20 01:37:39;;;;;;;7.10;3.80;;;10.60;38.10;;;;;;4999737;28;20428;-84
2021/01/20 01:40:06;;;;;;;3.77;3.37;;;11.10;41.80;;;;;;4994807;28;20467;-84
2021/01/20 01:42:33;;;;;;;3.87;3.10;;;11.40;40.40;;;;;;4975835;28;20472;-84
2021/01/20 01:45:00;;;;;;;7.00;5.30;;;11.50;40.70;;;;;;4975417;28;20506;-84
2021/01/20 01:50:50;;;;;;;6.33;4.10;;;11.70;40.50;;;;;;4975220;28;20431;-84
2021/01/20 01:53:17;;;;;;;7.37;3.77;;;11.80;40.70;;;;;;4974648;28;20488;-84
2021/01/20 01:55:43;;;;;;;6.97;4.23;;;12.00;40.60;;;;;;4974982;28;20491;-84
2021/01/20 01:58:10;;;;;;;11.30;4.40;;;11.90;40.10;;;;;;4975158;28;20950;-84
2021/01/20 02:00:37;;;;;;;6.70;3.97;;;11.80;39.60;;;;;;4975233;28;20477;-84
2021/01/20 02:03:04;;;;;;;13.77;5.90;;;11.80;40.20;;;;;;4975425;28;20462;-84
2021/01/20 02:05:30;;;;;;;6.80;4.27;;;11.60;39.10;;;;;;4975231;28;20428;-85
2021/01/20 02:07:58;;;;;;;5.30;3.50;;;11.50;39.20;;;;;;4975237;28;20486;-84
2021/01/20 02:10:25;;;;;;;8.73;4.60;;;11.50;40.20;;;;;;4974877;28;21001;-84
2021/01/20 02:13:14;;;;;;;10.77;4.50;;;11.50;38.20;;;;;;4975229;28;20451;-84
2021/01/20 02:15:47;;;;;;;7.90;4.20;;;11.30;39.00;;;;;;4974460;28;20515;-84
2021/01/20 02:18:17;;;;;;;8.33;4.30;;;11.20;40.60;;;;;;4975066;28;20490;-84
2021/01/20 02:21:43;;;;;;;8.13;4.40;;;11.00;40.50;;;;;;4976130;28;20467;-84
2021/01/20 02:24:13;;;;;;;5.90;3.97;;;11.10;41.30;;;;;;4964385;28;20590;-83
2021/01/20 02:26:50;;;;;;;8.20;3.97;;;11.20;40.80;;;;;;4979348;28;20448;-84
2021/01/20 02:29:39;;;;;;;6.83;4.30;;;11.30;40.90;;;;;;4975446;28;20439;-84
2021/01/20 02:32:09;;;;;;;4.97;3.60;;;11.50;40.70;;;;;;4975378;28;20495;-84
2021/01/20 02:34:38;;;;;;;6.90;3.63;;;11.50;40.80;;;;;;4975615;28;20508;-84
2021/01/20 02:37:05;;;;;;;9.37;4.60;;;11.50;40.00;;;;;;4975075;28;20443;-84
2021/01/20 02:39:33;;;;;;;8.30;4.73;;;11.70;40.70;;;;;;4975750;28;20456;-84
2021/01/20 02:42:04;;;;;;;5.90;3.73;;;11.60;39.00;;;;;;4974966;28;20514;-84
2021/01/20 02:44:36;;;;;;;13.27;5.23;;;11.50;40.10;;;;;;4974748;28;20461;-84
2021/01/20 02:47:03;;;;;;;18.13;6.60;;;11.10;40.50;;;;;;4974591;28;20976;-84
2021/01/20 02:49:31;;;;;;;8.60;4.40;;;10.90;39.30;;;;;;4974377;28;20550;-84
2021/01/20 02:52:04;;;;;;;6.37;4.10;;;10.70;40.40;;;;;;4974533;28;20489;-83
2021/01/20 02:54:33;;;;;;;11.67;5.60;;;10.60;41.10;;;;;;4974476;28;20468;-84
2021/01/20 02:57:02;;;;;;;13.70;5.87;;;10.60;40.30;;;;;;4974461;28;20566;-84
2021/01/20 02:59:30;;;;;;;7.67;4.90;;;10.60;39.70;;;;;;4974101;28;20459;-84
2021/01/20 03:02:01;;;;;;;12.30;5.00;;;10.80;40.30;;;;;;4974147;28;21004;-84
2021/01/20 03:04:28;;;;;;;9.43;4.77;;;10.80;40.20;;;;;;4974359;28;20481;-84
2021/01/20 03:06:59;;;;;;;10.10;4.83;;;10.80;40.40;;;;;;4974286;28;20451;-84
2021/01/20 03:09:25;;;;;;;12.77;6.90;;;10.70;38.50;;;;;;4974001;28;20456;-84
2021/01/20 03:11:52;;;;;;;13.27;7.90;;;10.50;39.40;;;;;;4973880;28;20514;-84
2021/01/20 03:14:21;;;;;;;11.40;6.33;;;10.50;40.90;;;;;;4973842;28;20488;-84
2021/01/20 03:16:48;;;;;;;24.23;6.20;;;10.40;40.20;;;;;;4974406;28;20467;-84
2021/01/20 03:19:14;;;;;;;8.43;4.43;;;10.50;40.20;;;;;;4974024;28;20539;-84
2021/01/20 03:21:41;;;;;;;4.10;3.30;;;10.50;41.40;;;;;;4973893;28;20586;-84
2021/01/20 03:24:09;;;;;;;6.27;3.37;;;10.50;38.70;;;;;;4974494;28;20836;-84
2021/01/20 03:26:36;;;;;;;7.70;4.47;;;10.40;37.90;;;;;;4977125;28;21012;-84
2021/01/20 03:29:02;;;;;;;8.13;3.70;;;10.60;41.90;;;;;;4977956;28;20479;-83
2021/01/20 03:31:29;;;;;;;5.13;4.30;;;10.80;41.10;;;;;;4977963;28;20503;-84
2021/01/20 03:33:55;;;;;;;5.60;4.07;;;11.10;41.60;;;;;;4978269;28;20891;-83
2021/01/20 03:36:21;;;;;;;7.60;4.33;;;11.10;39.50;;;;;;4977877;28;20546;-83
2021/01/20 03:38:48;;;;;;;7.53;4.63;;;10.50;37.30;;;;;;4978135;28;20499;-84
2021/01/20 03:41:15;;;;;;;4.80;4.00;;;10.00;38.10;;;;;;4978256;28;20463;-84
2021/01/20 03:43:42;;;;;;;6.47;3.93;;;9.70;41.00;;;;;;4978051;28;20837;-84
2021/01/20 03:46:08;;;;;;;5.40;4.00;;;10.00;42.30;;;;;;4978061;28;20491;-83
2021/01/20 03:48:35;;;;;;;6.00;3.60;;;10.40;42.70;;;;;;4978101;28;20538;-83
2021/01/20 03:51:02;;;;;;;6.83;3.40;;;10.70;42.00;;;;;;4977864;28;20455;-84
2021/01/20 03:53:28;;;;;;;5.70;3.80;;;11.10;41.30;;;;;;4977728;28;20498;-84
2021/01/20 03:55:54;;;;;;;5.47;3.83;;;11.10;41.40;;;;;;4977557;28;20436;-83
2021/01/20 03:58:22;;;;;;;8.20;4.07;;;11.30;41.20;;;;;;4977579;28;20435;-83
2021/01/20 04:00:48;;;;;;;6.07;3.93;;;11.50;41.00;;;;;;4977432;28;20569;-84
2021/01/20 04:03:15;;;;;;;6.23;4.63;;;11.30;38.00;;;;;;4977387;28;20787;-84
2021/01/20 04:05:41;;;;;;;6.37;3.93;;;11.10;40.70;;;;;;4977620;28;20451;-84
2021/01/20 04:08:08;;;;;;;4.10;3.23;;;11.10;40.50;;;;;;4977599;28;20863;-84
2021/01/20 04:10:34;;;;;;;4.17;3.00;;;11.20;41.00;;;;;;4977080;28;20474;-83
2021/01/20 04:13:01;;;;;;;7.03;4.20;;;11.20;41.50;;;;;;4977709;28;20455;-83
2021/01/20 04:15:28;;;;;;;8.03;4.37;;;11.40;40.30;;;;;;4977355;28;20508;-83
2021/01/20 04:17:54;;;;;;;8.30;4.17;;;11.30;39.50;;;;;;4977947;28;20488;-84
2021/01/20 04:20:21;;;;;;;10.30;5.10;;;11.10;40.10;;;;;;4977410;28;20472;-85
2021/01/20 04:22:47;;;;;;;10.57;4.83;;;11.20;38.40;;;;;;4977175;28;20531;-85
2021/01/20 04:25:14;;;;;;;5.63;3.80;;;10.90;36.20;;;;;;4977426;28;20544;-84
2021/01/20 04:27:40;;;;;;;8.67;4.73;;;10.40;39.60;;;;;;4977246;28;20487;-85
2021/01/20 04:30:08;;;;;;;6.83;4.27;;;10.60;39.00;;;;;;4977580;28;20479;-84
2021/01/20 04:32:35;;;;;;;6.60;4.50;;;10.60;37.90;;;;;;4977265;28;20463;-84
2021/01/20 04:35:02;;;;;;;6.40;4.00;;;10.30;39.70;;;;;;4977567;28;20496;-84
2021/01/20 04:37:28;;;;;;;6.43;4.20;;;10.60;40.30;;;;;;4976848;28;20454;-84
2021/01/20 04:39:55;;;;;;;6.00;4.10;;;10.30;36.00;;;;;;4978206;28;20602;-84
2021/01/20 04:42:21;;;;;;;7.77;4.33;;;9.80;40.80;;;;;;4978607;28;20483;-84
2021/01/20 04:44:48;;;;;;;6.40;4.10;;;9.90;40.30;;;;;;4980415;28;20444;-85
2021/01/20 04:47:16;;;;;;;11.53;6.27;;;10.30;39.60;;;;;;4978691;28;20451;-84
2021/01/20 04:49:45;;;;;;;7.60;4.90;;;10.70;40.50;;;;;;4977430;28;20518;-84
2021/01/20 04:52:16;;;;;;;8.73;4.63;;;11.00;40.90;;;;;;4977372;28;20456;-85
2021/01/20 04:54:44;;;;;;;4.03;3.33;;;11.20;40.60;;;;;;4977680;28;20468;-85
2021/01/20 04:57:13;;;;;;;5.93;4.20;;;11.40;40.60;;;;;;4977879;28;20815;-84
2021/01/20 04:59:41;;;;;;;8.53;4.50;;;11.50;41.10;;;;;;4976746;28;20444;-85
2021/01/20 05:02:09;;;;;;;10.37;6.77;;;11.70;40.00;;;;;;4976564;28;20474;-84
2021/01/20 05:04:37;;;;;;;7.23;4.90;;;11.60;39.50;;;;;;4976152;28;20967;-84
2021/01/20 05:07:06;;;;;;;9.63;5.93;;;11.30;37.90;;;;;;4976584;28;20535;-84
2021/01/20 05:09:33;;;;;;;6.87;4.07;;;11.10;38.50;;;;;;4977819;28;20448;-85
2021/01/20 05:12:00;;;;;;;7.57;4.30;;;10.90;38.20;;;;;;4995681;28;20569;-84
2021/01/20 05:14:26;;;;;;;15.00;5.17;;;10.60;38.50;;;;;;4996030;28;20484;-84
2021/01/20 05:16:54;;;;;;;3.90;3.43;;;10.60;38.00;;;;;;5000529;28;20439;-84
2021/01/20 05:19:35;;;;;;;4.43;3.40;;;10.30;38.50;;;;;;5002795;28;20446;-84
2021/01/20 05:22:05;;;;;;;6.10;3.87;;;9.70;37.60;;;;;;4995827;28;20465;-84
2021/01/20 05:24:32;;;;;;;5.87;4.10;;;9.40;38.50;;;;;;4995728;28;20443;-84
2021/01/20 05:26:59;;;;;;;9.27;4.20;;;9.30;40.00;;;;;;4995519;28;20483;-84
2021/01/20 05:29:26;;;;;;;4.97;3.80;;;9.60;38.80;;;;;;4995636;28;20430;-84
2021/01/20 05:31:52;;;;;;;6.80;4.20;;;9.80;39.80;;;;;;4995419;28;20474;-83
2021/01/20 05:34:29;;;;;;;5.23;3.57;;;9.60;37.90;;;;;;4977519;28;20491;-84
2021/01/20 05:37:05;;;;;;;6.60;4.23;;;10.10;39.00;;;;;;4975755;28;20499;-84
2021/01/20 05:39:33;;;;;;;5.77;4.00;;;10.00;34.50;;;;;;4975624;28;20447;-84
2021/01/20 05:42:01;;;;;;;5.20;3.73;;;9.50;40.10;;;;;;4975408;28;20456;-84
2021/01/20 05:44:27;;;;;;;4.60;3.90;;;9.90;38.90;;;;;;4975691;28;20448;-84
2021/01/20 05:46:54;;;;;;;8.10;4.47;;;9.30;35.40;;;;;;4976059;28;20452;-84
2021/01/20 05:49:25;;;;;;;7.30;4.13;;;9.00;36.80;;;;;;4974481;28;20556;-83
2021/01/20 05:51:52;;;;;;;6.07;4.23;;;9.40;41.10;;;;;;4975734;28;20542;-84
2021/01/20 05:54:36;;;;;;;9.97;4.20;;;9.40;38.20;;;;;;4976518;28;20480;-84
2021/01/20 05:57:14;;;;;;;6.93;3.73;;;9.60;39.00;;;;;;4976626;28;20443;-84
2021/01/20 05:59:41;;;;;;;6.37;4.10;;;10.20;40.50;;;;;;4991268;28;20439;-84
2021/01/20 06:02:09;;;;;;;6.87;4.10;;;10.80;40.30;;;;;;4993898;28;20678;-84
2021/01/20 06:04:36;;;;;;;7.13;4.80;;;11.00;37.30;;;;;;4981319;28;20538;-83
2021/01/20 06:07:05;;;;;;;8.20;4.90;;;11.10;37.70;;;;;;4977033;28;20961;-82
2021/01/20 06:09:34;;;;;;;5.20;4.13;;;11.20;36.80;;;;;;4976513;28;20468;-83
2021/01/20 06:12:02;;;;;;;6.43;4.63;;;11.20;37.20;;;;;;4975370;28;20523;-83
2021/01/20 06:14:29;;;;;;;7.60;4.13;;;11.20;36.20;;;;;;4975279;28;20539;-84
2021/01/20 06:17:10;;;;;;;7.60;5.40;;;11.10;36.50;;;;;;4975337;28;20460;-84
2021/01/20 06:19:44;;;;;;;6.70;4.27;;;10.90;38.20;;;;;;4975037;28;20432;-84
2021/01/20 06:22:13;;;;;;;6.80;4.20;;;10.60;38.10;;;;;;4975059;28;20471;-84
2021/01/20 06:24:46;;;;;;;6.97;5.10;;;10.80;38.80;;;;;;4974800;28;20482;-83
2021/01/20 06:27:19;;;;;;;7.00;4.80;;;10.70;35.40;;;;;;4974879;28;20922;-84
2021/01/20 06:29:52;;;;;;;5.50;4.50;;;10.50;36.30;;;;;;4975185;28;20455;-83
2021/01/20 06:32:23;;;;;;;7.23;4.93;;;10.20;36.10;;;;;;4986892;28;20494;-84
2021/01/20 06:34:51;;;;;;;6.47;4.97;;;9.90;38.10;;;;;;4992259;28;20474;-84
2021/01/20 06:37:42;;;;;;;7.47;4.63;;;9.90;40.60;;;;;;4992896;28;20513;-84
2021/01/20 06:40:48;;;;;;;6.80;5.10;;;9.90;39.60;;;;;;4962093;28;20574;-84
2021/01/20 06:43:34;;;;;;;9.67;5.80;;;10.00;39.40;;;;;;4958375;28;20456;-84
2021/01/20 06:46:26;;;;;;;6.87;4.97;;;9.80;38.00;;;;;;4990662;28;20451;-84
2021/01/20 06:49:16;;;;;;;6.87;4.80;;;9.60;38.90;;;;;;4975034;28;20428;-84
2021/01/20 06:52:03;;;;;;;7.50;5.73;;;9.50;40.40;;;;;;4984397;28;20483;-84
2021/01/20 06:54:37;;;;;;;10.37;4.77;;;9.80;40.70;;;;;;4984046;28;20851;-84
2021/01/20 06:57:26;;;;;;;8.67;4.90;;;10.00;38.80;;;;;;4974431;28;20478;-85
2021/01/20 07:00:12;;;;;;;6.97;4.60;;;10.10;37.60;;;;;;4975164;28;20507;-85
2021/01/20 07:02:58;;;;;;;6.70;4.03;;;10.30;39.10;;;;;;4981917;28;20511;-85
2021/01/20 07:05:35;;;;;;;8.30;4.50;;;10.40;36.80;;;;;;4999743;28;20945;-84
2021/01/20 07:08:02;;;;;;;8.27;4.07;;;10.20;38.30;;;;;;4999583;28;20908;-85
2021/01/20 07:10:44;;;;;;;10.93;5.20;;;10.40;37.50;;;;;;4961550;28;20559;-85
2021/01/20 07:13:18;;;;;;;6.83;5.10;;;10.50;38.70;;;;;;4981943;28;20447;-85
2021/01/20 07:15:53;;;;;;;5.80;4.00;;;10.70;37.00;;;;;;4997810;28;20458;-85
2021/01/20 07:18:22;;;;;;;6.70;4.50;;;10.30;36.00;;;;;;4982440;28;20428;-85
2021/01/20 07:20:48;;;;;;;8.83;4.87;;;10.40;37.20;;;;;;4983462;28;20467;-85
2021/01/20 07:23:15;;;;;;;9.63;4.27;;;10.20;35.40;;;;;;4984515;28;20797;-85
2021/01/20 07:25:44;;;;;;;6.63;4.03;;;10.20;39.20;;;;;;5002170;28;20940;-85
2021/01/20 07:28:10;;;;;;;6.00;3.80;;;10.30;37.90;;;;;;5001167;28;20443;-84
2021/01/20 07:30:37;;;;;;;7.33;4.47;;;10.40;37.70;;;;;;4998339;28;20490;-84
2021/01/20 07:33:15;;;;;;;6.87;4.77;;;10.10;35.50;;;;;;4981693;28;20448;-84
2021/01/20 07:35:42;;;;;;;5.87;3.90;;;9.80;37.30;;;;;;4980671;28;21001;-84
2021/01/20 07:38:08;;;;;;;7.07;4.67;;;9.40;38.80;;;;;;4986316;28;20462;-84
2021/01/20 07:40:36;;;;;;;5.17;3.80;;;9.50;37.00;;;;;;5000582;28;20468;-83
2021/01/20 07:43:04;;;;;;;7.60;4.40;;;9.30;38.50;;;;;;4998194;28;20466;-85
2021/01/20 07:45:39;;;;;;;5.80;4.50;;;9.10;36.60;;;;;;4985135;28;20457;-84
2021/01/20 07:48:07;;;;;;;6.90;4.07;;;9.60;39.40;;;;;;4999640;28;20454;-84
2021/01/20 07:50:39;;;;;;;5.30;4.00;;;9.90;39.60;;;;;;5000989;28;20894;-84
2021/01/20 07:53:06;;;;;;;5.97;4.47;;;9.80;39.20;;;;;;5000603;28;20494;-84
2021/01/20 07:55:32;;;;;;;7.47;4.70;;;9.80;36.80;;;;;;4995789;28;20491;-84
2021/01/20 07:58:00;;;;;;;7.20;4.77;;;10.00;36.70;;;;;;4984136;28;20450;-84
2021/01/20 08:00:27;;;;;;;7.60;4.77;;;10.10;35.00;;;;;;4997642;28;20526;-85
2021/01/20 08:02:56;;;;;;;8.77;4.50;;;9.50;37.50;;;;;;4984414;28;20505;-85
2021/01/20 08:05:32;;;;;;;9.50;4.30;;;9.50;39.60;;;;;;5000313;28;20463;-85
2021/01/20 08:08:09;;;;;;;5.40;4.40;;;9.90;37.60;;;;;;5009626;28;20438;-84
2021/01/20 08:10:36;;;;;;;6.50;3.70;;;10.10;35.50;;;;;;5006818;28;20483;-84
2021/01/20 08:13:04;;;;;;;7.77;4.43;;;9.90;37.10;;;;;;4997598;28;20427;-83
2021/01/20 08:15:37;;;;;;;8.07;4.10;;;9.70;37.10;;;;;;4991311;28;20476;-85
2021/01/20 08:18:05;;;;;;;6.63;4.30;;;9.70;39.70;;;;;;4991359;28;20436;-84
2021/01/20 08:20:33;;;;;;;6.73;4.80;;;9.70;36.10;;;;;;4991280;28;20486;-85
2021/01/20 08:23:00;;;;;;;7.17;4.57;;;9.40;38.10;;;;;;4986561;28;20949;-85
2021/01/20 08:25:28;;;;;;;6.20;3.80;;;9.50;36.00;;;;;;4985878;28;20448;-85
2021/01/20 08:27:54;;;;;;;7.50;4.53;;;9.40;38.80;;;;;;4986374;28;20458;-85
2021/01/20 08:30:31;;;;;;;5.67;4.53;;;10.00;36.60;;;;;;4986087;28;20499;-84
2021/01/20 08:32:59;;;;;;;10.27;4.33;;;10.20;35.60;;;;;;4988249;28;20432;-85
2021/01/20 08:35:27;;;;;;;9.00;4.40;;;9.90;38.50;;;;;;4990339;28;20486;-85
2021/01/20 08:37:54;;;;;;;7.90;4.70;;;9.90;38.30;;;;;;5004303;28;20474;-85
2021/01/20 08:40:21;;;;;;;6.13;4.47;;;9.80;37.60;;;;;;5006232;28;20816;-86
2021/01/20 08:42:48;;;;;;;4.43;3.73;;;9.80;39.80;;;;;;5004333;28;20821;-87
2021/01/20 08:45:16;;;;;;;7.23;4.40;;;9.60;37.00;;;;;;4994428;28;20529;-87
2021/01/20 08:47:48;;;;;;;6.03;4.40;;;9.70;40.00;;;;;;5003451;28;20446;-88
2021/01/20 08:50:17;;;;;;;6.80;4.80;;;10.20;37.00;;;;;;4985413;28;20479;-87
2021/01/20 08:52:45;;;;;;;6.00;4.10;;;10.50;33.60;;;;;;4984705;28;20467;-89
2021/01/20 08:55:20;;;;;;;6.87;4.10;;;10.50;33.90;;;;;;4979616;28;20484;-89
2021/01/20 08:57:48;;;;;;;5.10;4.13;;;10.40;35.80;;;;;;4978508;28;20443;-89
2021/01/20 09:00:15;;;;;;;16.73;4.37;;;10.70;34.60;;;;;;4978583;28;20470;-89
2021/01/20 09:02:41;;;;;;;6.97;4.30;;;10.90;35.50;;;;;;4977866;28;20448;-88
2021/01/20 09:05:09;;;;;;;6.00;4.50;;;11.20;35.10;;;;;;4978316;28;20440;-86
2021/01/20 09:07:36;;;;;;;6.60;4.80;;;11.00;34.20;;;;;;4979210;28;20443;-88
2021/01/20 09:10:02;;;;;;;10.20;4.70;;;11.00;34.50;;;;;;4977948;28;20947;-87
2021/01/20 09:12:29;;;;;;;5.70;4.60;;;11.10;32.50;;;;;;4977731;28;20804;-88
2021/01/20 09:14:57;;;;;;;11.77;5.17;;;11.10;32.30;;;;;;4985290;28;20603;-88
2021/01/20 09:17:24;;;;;;;7.40;4.80;;;11.30;33.90;;;;;;4992744;28;20802;-88
2021/01/20 09:19:50;;;;;;;6.80;4.20;;;11.60;33.50;;;;;;4992100;28;20440;-86
2021/01/20 09:22:16;;;;;;;11.73;4.00;;;11.50;32.80;;;;;;4991975;28;20447;-87
2021/01/20 09:24:43;;;;;;;5.73;4.10;;;11.80;35.80;;;;;;4990228;28;20460;-88
2021/01/20 09:27:09;;;;;;;5.60;3.90;;;12.00;33.50;;;;;;4988327;28;20450;-88
2021/01/20 09:29:37;;;;;;;9.90;4.83;;;11.70;33.70;;;;;;4986748;28;20433;-88
2021/01/20 09:32:06;;;;;;;10.13;4.70;;;11.70;33.30;;;;;;4986574;28;20500;-87
2021/01/20 09:34:32;;;;;;;5.57;4.03;;;11.70;31.60;;;;;;4992021;28;20496;-87
2021/01/20 09:36:58;;;;;;;5.70;4.20;;;11.70;33.30;;;;;;5006034;28;20505;-88
2021/01/20 09:39:25;;;;;;;5.80;4.57;;;12.00;35.30;;;;;;5008710;28;20473;-87
2021/01/20 09:41:51;;;;;;;15.10;5.53;;;12.10;33.70;;;;;;5007978;28;20542;-87
2021/01/20 09:44:18;;;;;;;8.10;4.70;;;11.90;32.50;;;;;;5009571;28;20446;-87
2021/01/20 09:46:44;;;;;;;8.70;4.33;;;11.90;32.50;;;;;;5007875;28;20434;-88
2021/01/20 09:49:12;;;;;;;9.40;5.00;;;11.70;33.80;;;;;;5008061;28;20434;-87
2021/01/20 09:51:38;;;;;;;6.00;4.40;;;11.60;32.30;;;;;;5001069;28;20458;-88
2021/01/20 09:54:05;;;;;;;8.23;4.57;;;11.50;31.40;;;;;;4996835;28;20562;-88
2021/01/20 09:56:31;;;;;;;6.20;4.13;;;10.60;32.50;;;;;;4996105;28;20982;-88
2021/01/20 09:58:58;;;;;;;6.30;3.80;;;10.50;34.80;;;;;;4999779;28;20490;-88
2021/01/20 10:01:24;;;;;;;5.27;3.80;;;10.00;36.30;;;;;;4997451;28;20472;-88
2021/01/20 10:03:51;;;;;;;6.10;4.37;;;10.20;34.00;;;;;;4995850;28;20945;-90
2021/01/20 10:06:19;;;;;;;5.43;3.80;;;10.10;34.10;;;;;;4995094;28;20463;-88
2021/01/20 10:08:45;;;;;;;6.40;4.10;;;10.10;37.10;;;;;;4995327;28;20466;-88
2021/01/20 10:11:12;;;;;;;7.27;4.50;;;10.80;33.90;;;;;;4998349;28;20487;-88
2021/01/20 10:13:38;;;;;;;5.87;4.37;;;10.40;33.00;;;;;;4997630;28;20457;-88
2021/01/20 10:16:05;;;;;;;8.60;5.20;;;10.30;34.40;;;;;;4996028;28;20466;-88
2021/01/20 10:18:32;;;;;;;10.40;6.60;;;10.20;33.80;;;;;;4996590;28;20829;-89
2021/01/20 10:20:58;;;;;;;11.10;6.47;;;10.50;34.90;;;;;;4998468;28;20493;-88
2021/01/20 10:23:26;;;;;;;11.30;6.07;;;11.10;36.10;;;;;;4997132;28;20483;-88
2021/01/20 10:25:52;;;;;;;12.40;6.07;;;11.60;33.70;;;;;;4997937;28;20452;-89
2021/01/20 10:28:19;;;;;;;22.53;7.80;;;11.70;34.80;;;;;;4996293;28;20845;-89
2021/01/20 10:30:45;;;;;;;13.57;6.80;;;11.30;33.80;;;;;;4996285;28;21043;-86
2021/01/20 10:33:12;;;;;;;8.97;5.80;;;11.50;35.40;;;;;;4996123;28;20825;-86
2021/01/20 10:35:40;;;;;;;10.73;7.27;;;11.70;34.40;;;;;;4994096;28;20493;-85
2021/01/20 10:38:06;;;;;;;8.00;6.17;;;11.40;33.00;;;;;;4995030;28;20962;-85
2021/01/20 10:40:33;;;;;;;9.23;6.00;;;11.10;34.00;;;;;;4994805;28;20470;-86
2021/01/20 10:43:00;;;;;;;10.47;6.13;;;11.70;35.30;;;;;;4995271;28;20452;-86
2021/01/20 10:45:26;;;;;;;12.60;6.83;;;12.00;33.60;;;;;;4995216;28;20741;-85
2021/01/20 10:47:53;;;;;;;13.70;7.47;;;12.20;33.60;;;;;;4994586;28;20505;-86
2021/01/20 10:50:19;;;;;;;10.13;7.10;;;12.30;32.60;;;;;;4996220;28;20470;-86
2021/01/20 10:52:46;;;;;;;8.10;5.30;;;12.60;31.50;;;;;;4994762;28;20457;-86
2021/01/20 10:55:12;;;;;;;10.43;6.90;;;12.50;33.20;;;;;;4994353;28;20488;-87
2021/01/20 10:57:40;;;;;;;11.70;6.93;;;12.50;31.50;;;;;;4995147;28;20439;-86
2021/01/20 11:00:07;;;;;;;9.07;5.93;;;12.80;31.90;;;;;;4994950;28;20505;-86
2021/01/20 11:02:33;;;;;;;10.90;6.10;;;12.70;30.90;;;;;;4994485;28;20458;-86
2021/01/20 11:05:00;;;;;;;9.40;6.07;;;12.90;31.20;;;;;;4995667;28;20505;-85
2021/01/20 11:07:26;;;;;;;9.83;5.53;;;12.90;31.30;;;;;;5000611;28;20446;-85
2021/01/20 11:09:56;;;;;;;6.57;4.70;;;13.00;31.30;;;;;;4994690;28;20458;-86
2021/01/20 11:12:22;;;;;;;9.53;6.00;;;12.80;34.60;;;;;;4990305;28;20463;-84
2021/01/20 11:14:50;;;;;;;10.33;6.30;;;12.90;32.10;;;;;;4974999;28;20577;-85
2021/01/20 11:17:16;;;;;;;7.73;5.00;;;13.10;31.50;;;;;;4974693;28;20474;-85
2021/01/20 11:19:42;;;;;;;6.97;5.00;;;12.60;33.90;;;;;;4975020;28;20459;-86
2021/01/20 11:22:09;;;;;;;10.10;5.70;;;12.60;32.10;;;;;;4975436;28;20468;-85
2021/01/20 11:24:36;;;;;;;9.30;5.00;;;12.70;30.70;;;;;;4974768;28;20547;-85
2021/01/20 11:27:03;;;;;;;12.93;6.47;;;12.40;34.00;;;;;;4974524;28;20440;-85
2021/01/20 11:29:29;;;;;;;9.07;5.67;;;12.50;31.90;;;;;;4975335;28;20530;-85
2021/01/20 11:31:56;;;;;;;11.37;6.37;;;12.10;32.30;;;;;;4975042;28;20472;-85
2021/01/20 11:34:23;;;;;;;14.60;6.07;;;12.10;32.70;;;;;;4974828;28;20901;-85
2021/01/20 11:36:49;;;;;;;10.17;6.10;;;12.30;33.50;;;;;;4974829;28;20514;-85
2021/01/20 11:39:16;;;;;;;11.40;6.37;;;12.60;32.10;;;;;;4974779;28;20459;-85
2021/01/20 11:41:42;;;;;;;15.27;6.33;;;12.60;32.00;;;;;;4974040;28;20452;-85
2021/01/20 11:44:08;;;;;;;17.13;9.03;;;12.50;32.70;;;;;;4974067;28;20515;-84
2021/01/20 11:46:35;;;;;;;11.23;6.70;;;12.70;32.10;;;;;;4973783;28;20451;-84
2021/01/20 11:49:09;;;;;;;14.03;6.40;;;12.70;33.00;;;;;;4977318;28;20467;-86
2021/01/20 11:51:36;;;;;;;14.90;6.30;;;12.80;32.10;;;;;;4977925;28;20514;-85
2021/01/20 11:54:03;;;;;;;11.63;5.20;;;13.20;32.20;;;;;;4977898;28;20446;-85
2021/01/20 11:56:29;;;;;;;13.27;7.23;;;12.80;34.60;;;;;;4977272;28;20534;-85
2021/01/20 11:58:56;;;;;;;12.40;6.83;;;12.50;33.00;;;;;;4977187;28;20503;-85
2021/01/20 12:01:22;;;;;;;12.47;6.50;;;12.40;33.90;;;;;;4977286;28;20518;-86
2021/01/20 12:03:49;;;;;;;11.87;7.23;;;12.70;32.90;;;;;;4976741;28;20543;-86
2021/01/20 12:06:17;;;;;;;17.30;8.20;;;12.90;32.60;;;;;;4976891;28;20455;-86
2021/01/20 12:08:43;;;;;;;13.37;7.80;;;13.20;33.60;;;;;;4977221;28;20451;-86
2021/01/20 12:11:10;;;;;;;18.33;8.83;;;13.30;31.10;;;;;;4980586;28;20495;-86
2021/01/20 12:13:36;;;;;;;10.57;6.73;;;13.20;32.40;;;;;;4977396;28;20456;-86
2021/01/20 12:16:03;;;;;;;14.80;8.17;;;13.50;32.00;;;;;;4977175;28;20490;-85
2021/01/20 12:18:29;;;;;;;18.10;9.13;;;13.50;31.70;;;;;;4997000;28;20462;-85
2021/01/20 12:20:56;;;;;;;12.90;7.30;;;13.60;31.60;;;;;;4996712;28;20475;-86
2021/01/20 12:23:23;;;;;;;27.33;8.13;;;13.60;31.40;;;;;;4996895;28;20490;-86
2021/01/20 12:25:49;;;;;;;9.30;6.47;;;13.70;32.20;;;;;;4997802;28;20451;-85
2021/01/20 12:28:16;;;;;;;10.43;6.37;;;14.20;33.10;;;;;;4982058;28;20522;-86
2021/01/20 12:30:42;;;;;;;10.40;5.93;;;14.40;33.50;;;;;;4977696;28;20464;-86
2021/01/20 12:33:09;;;;;;;9.57;6.47;;;14.60;31.60;;;;;;4976974;28;20460;-86
2021/01/20 12:35:35;;;;;;;13.63;7.07;;;14.60;30.60;;;;;;4976943;28;20480;-86
2021/01/20 12:38:03;;;;;;;16.97;6.90;;;14.70;31.80;;;;;;4977024;28;20812;-86
2021/01/20 12:40:30;;;;;;;28.80;7.60;;;14.60;31.80;;;;;;4977020;28;20476;-86
2021/01/20 12:42:57;;;;;;;16.63;7.30;;;14.70;31.70;;;;;;4976774;28;20455;-86
2021/01/20 12:45:23;;;;;;;21.33;7.60;;;14.70;31.30;;;;;;4978186;28;20463;-86
2021/01/20 12:47:50;;;;;;;15.60;8.17;;;14.80;30.60;;;;;;4977248;28;20449;-86
2021/01/20 12:50:16;;;;;;;14.50;7.90;;;14.80;31.20;;;;;;4977004;28;20487;-87
2021/01/20 12:52:43;;;;;;;12.70;7.77;;;14.60;32.30;;;;;;4976608;28;20446;-86
2021/01/20 12:55:11;;;;;;;11.40;7.00;;;14.40;31.00;;;;;;4992209;28;20533;-86
2021/01/20 12:57:38;;;;;;;16.53;7.90;;;14.40;33.00;;;;;;4996280;28;20453;-87
2021/01/20 13:00:06;;;;;;;12.37;6.90;;;14.40;31.30;;;;;;4995895;28;20439;-86
2021/01/20 13:02:32;;;;;;;15.63;8.23;;;14.50;32.20;;;;;;4996423;28;20456;-85
2021/01/20 13:04:58;;;;;;;25.30;8.00;;;14.60;30.90;;;;;;4995999;28;20937;-86
2021/01/20 13:07:25;;;;;;;14.37;8.67;;;14.20;31.90;;;;;;4996807;28;20848;-86
2021/01/20 13:09:57;;;;;;;20.27;8.33;;;14.30;31.10;;;;;;4995902;28;20455;-87